Time;durP1;ratioP1;P1;durP2;ratioP2;P2;SDS_P1;SDS_P2;PMS_P1;PMS_P2;Temp;Humidity;BMP_temperature;BMP_pressure;BME280_temperature;BME280_humidity;BME280_pressure;Samples;Min_cycle;Max_cycle;Signal;HPM_P1;HPM_P2
2022/11/09 00:01:44;;;;;;;15.97;7.83;;;;;;;42.42;34.42;101108.25;5115176;28;20155;-69
2022/11/09 00:04:11;;;;;;;19.33;8.37;;;;;;;41.84;34.93;101106.00;5114988;28;20190;-69
2022/11/09 00:06:36;;;;;;;18.40;8.50;;;;;;;42.10;34.23;101105.06;5114895;28;20443;-69
2022/11/09 00:09:05;;;;;;;16.27;8.77;;;;;;;41.91;34.24;101107.41;5096351;28;20939;-70
2022/11/09 00:11:31;;;;;;;16.33;9.00;;;;;;;42.22;34.47;101098.94;5114619;28;20712;-69
2022/11/09 00:13:57;;;;;;;15.17;8.10;;;;;;;42.25;34.15;101098.28;5096755;28;20514;-69
2022/11/09 00:16:22;;;;;;;14.67;7.93;;;;;;;42.26;34.72;101103.41;5079428;28;20213;-69
2022/11/09 00:18:50;;;;;;;20.27;10.27;;;;;;;42.10;35.11;101091.44;5096194;28;20420;-69
2022/11/09 00:21:21;;;;;;;15.20;8.10;;;;;;;42.22;35.52;101085.28;5096203;28;20998;-69
2022/11/09 00:23:47;;;;;;;19.13;10.30;;;;;;;42.46;35.34;101090.09;5092389;28;20479;-69
2022/11/09 00:26:16;;;;;;;14.23;9.23;;;;;;;42.11;35.83;101082.13;5092738;28;20412;-69
2022/11/09 00:28:42;;;;;;;21.87;11.93;;;;;;;41.92;35.92;101079.81;5092553;28;20411;-69
2022/11/09 00:31:12;;;;;;;24.40;9.97;;;;;;;41.76;36.58;101076.88;5092620;28;20412;-69
2022/11/09 00:33:38;;;;;;;27.17;11.03;;;;;;;42.15;35.29;101088.53;5092718;28;20425;-69
2022/11/09 00:36:08;;;;;;;16.97;7.80;;;;;;;42.14;35.62;101086.94;5075625;28;20986;-69
2022/11/09 00:38:39;;;;;;;22.57;8.20;;;;;;;42.54;35.31;101087.31;5094130;28;20404;-69
2022/11/09 00:41:06;;;;;;;15.27;9.10;;;;;;;42.42;35.18;101080.97;5093925;28;20419;-69
2022/11/09 00:43:33;;;;;;;15.70;7.83;;;;;;;42.28;35.56;101082.03;5092192;28;20453;-69
2022/11/09 00:45:59;;;;;;;16.80;8.80;;;;;;;42.36;35.58;101077.69;5092208;28;20427;-69
2022/11/09 00:48:25;;;;;;;17.23;8.87;;;;;;;42.14;36.13;101078.75;5092309;28;20915;-69
2022/11/09 00:50:52;;;;;;;25.93;9.37;;;;;;;42.18;35.58;101076.19;5092425;28;20446;-69
2022/11/09 00:53:18;;;;;;;15.20;8.87;;;;;;;42.21;35.92;101076.31;5091969;28;20408;-69
2022/11/09 00:56:12;;;;;;;27.93;12.80;;;;;;;42.68;34.76;101067.97;5092146;28;20440;-69
2022/11/09 00:58:39;;;;;;;19.60;9.00;;;;;;;42.60;34.74;101066.09;5092001;28;20884;-71
2022/11/09 01:01:14;;;;;;;17.00;8.30;;;;;;;42.65;34.56;101071.34;5091162;28;20486;-72
2022/11/09 01:03:41;;;;;;;13.43;8.43;;;;;;;42.63;34.61;101054.53;5093376;28;20982;-72
2022/11/09 01:06:07;;;;;;;14.10;7.77;;;;;;;42.44;34.34;101051.47;5091953;28;20439;-71
2022/11/09 01:08:34;;;;;;;20.97;8.73;;;;;;;42.32;34.37;101054.91;5093491;28;20922;-71
2022/11/09 01:11:06;;;;;;;22.67;9.43;;;;;;;42.50;34.72;101055.59;5091912;28;20460;-72
2022/11/09 01:13:33;;;;;;;15.27;8.63;;;;;;;42.41;34.96;101063.81;5093405;28;20446;-71
2022/11/09 01:15:59;;;;;;;16.07;8.63;;;;;;;42.44;34.71;101055.00;5091702;28;20453;-71
2022/11/09 01:18:25;;;;;;;18.73;8.27;;;;;;;42.39;34.62;101055.97;5091663;28;20436;-71
2022/11/09 01:20:51;;;;;;;20.30;10.90;;;;;;;42.36;34.75;101048.47;5093369;28;20166;-69
2022/11/09 01:23:18;;;;;;;19.77;9.90;;;;;;;42.14;35.21;101044.09;5091317;28;20492;-69
2022/11/09 01:25:44;;;;;;;10.60;6.83;;;;;;;42.23;35.26;101051.44;5091598;28;20452;-70
2022/11/09 01:28:11;;;;;;;20.30;9.93;;;;;;;42.20;35.11;101052.94;5091643;28;20445;-70
2022/11/09 01:30:40;;;;;;;16.67;9.43;;;;;;;42.17;34.84;101041.88;5091529;28;20231;-69
2022/11/09 01:33:09;;;;;;;19.30;8.20;;;;;;;42.19;35.31;101048.59;5093205;28;20930;-70
2022/11/09 01:35:37;;;;;;;15.30;8.70;;;;;;;42.10;35.02;101042.38;5091493;28;20412;-69
2022/11/09 01:38:04;;;;;;;17.10;9.80;;;;;;;42.13;34.96;101041.72;5091477;28;20493;-70
2022/11/09 01:40:32;;;;;;;18.93;9.10;;;;;;;42.20;34.98;101050.19;5091482;28;20409;-69
2022/11/09 01:42:58;;;;;;;16.20;8.80;;;;;;;42.28;35.13;101040.34;5091266;28;20477;-69
2022/11/09 01:45:27;;;;;;;17.37;8.97;;;;;;;42.17;34.72;101050.06;5091448;28;20773;-69
2022/11/09 01:48:11;;;;;;;20.93;12.77;;;;;;;42.25;34.73;101047.28;5091891;28;20389;-68
2022/11/09 01:50:42;;;;;;;18.73;11.10;;;;;;;42.28;35.06;101038.41;5091333;28;20432;-69
2022/11/09 01:53:16;;;;;;;20.53;10.97;;;;;;;42.10;35.29;101045.91;5088083;28;20406;-69
2022/11/09 01:55:46;;;;;;;14.17;7.90;;;;;;;42.08;35.01;101034.53;5055149;28;20405;-69
2022/11/09 01:58:19;;;;;;;24.97;9.23;;;;;;;41.92;35.79;101029.97;5071372;28;20912;-69
2022/11/09 02:00:48;;;;;;;23.40;9.60;;;;;;;42.23;35.49;101021.47;5071603;28;20524;-69
2022/11/09 02:03:36;;;;;;;20.57;10.13;;;;;;;42.15;35.29;101020.38;5072571;28;20450;-70
2022/11/09 02:06:07;;;;;;;32.53;11.57;;;;;;;41.76;35.90;101025.13;5070963;28;20448;-69
2022/11/09 02:08:33;;;;;;;23.33;10.20;;;;;;;41.84;35.65;101018.81;5077031;28;20439;-69
2022/11/09 02:11:04;;;;;;;13.37;9.07;;;;;;;41.78;36.03;101003.78;5087777;28;20484;-69
2022/11/09 02:13:31;;;;;;;20.90;10.17;;;;;;;41.77;36.28;101002.19;5091017;28;20427;-69
2022/11/09 02:15:58;;;;;;;16.90;10.60;;;;;;;41.92;35.90;101016.38;5095213;28;20428;-69
2022/11/09 02:18:24;;;;;;;18.23;10.43;;;;;;;41.94;35.97;101000.50;5095118;28;20424;-69
2022/11/09 02:20:53;;;;;;;15.83;8.37;;;;;;;41.66;36.53;100997.44;5096495;28;20389;-69
2022/11/09 02:23:19;;;;;;;14.40;8.10;;;;;;;41.90;36.22;100999.56;5095046;28;20472;-69
2022/11/09 02:26:03;;;;;;;19.00;8.40;;;;;;;41.64;36.62;101002.41;5096346;28;20491;-69
2022/11/09 02:28:31;;;;;;;19.00;9.40;;;;;;;41.59;36.37;100993.28;5094840;28;20413;-69
2022/11/09 02:30:58;;;;;;;16.17;9.80;;;;;;;41.66;36.41;101005.59;5078123;28;20945;-69
2022/11/09 02:33:24;;;;;;;12.23;8.40;;;;;;;41.81;36.36;100992.25;5096502;28;20396;-69
2022/11/09 02:35:50;;;;;;;19.70;9.10;;;;;;;41.73;36.28;100998.50;5094603;28;20427;-69
2022/11/09 02:38:16;;;;;;;17.33;10.90;;;;;;;42.00;35.95;100994.53;5094827;28;20469;-69
2022/11/09 02:40:47;;;;;;;17.27;9.03;;;;;;;42.02;35.89;101000.44;5095006;28;20421;-69
2022/11/09 02:43:15;;;;;;;15.90;10.60;;;;;;;41.97;35.58;100991.66;5074070;28;20195;-69
2022/11/09 02:45:41;;;;;;;27.00;9.67;;;;;;;42.08;35.85;101001.03;5074404;28;20455;-69
2022/11/09 02:48:07;;;;;;;17.13;9.73;;;;;;;41.81;36.24;100996.91;5074290;28;20499;-69
2022/11/09 02:50:35;;;;;;;27.23;10.20;;;;;;;42.07;35.84;100997.50;5074264;28;20468;-69
2022/11/09 02:53:00;;;;;;;21.17;9.77;;;;;;;42.04;35.57;101000.09;5074310;28;20182;-69
2022/11/09 02:55:26;;;;;;;19.67;9.37;;;;;;;42.03;35.46;100995.78;5057526;28;20422;-70
2022/11/09 02:57:52;;;;;;;13.90;9.73;;;;;;;41.92;35.95;100987.19;5074179;28;20179;-69
2022/11/09 03:00:18;;;;;;;15.73;8.20;;;;;;;41.56;36.48;100991.25;5074161;28;20200;-69
2022/11/09 03:02:44;;;;;;;24.67;11.27;;;;;;;41.54;36.64;100993.47;5075612;28;20156;-69
2022/11/09 03:05:10;;;;;;;24.60;11.20;;;;;;;41.65;36.35;100990.38;5074024;28;20924;-69
2022/11/09 03:07:36;;;;;;;25.40;11.90;;;;;;;41.76;35.93;100989.72;5074116;28;20433;-69
2022/11/09 03:10:02;;;;;;;21.80;11.60;;;;;;;41.73;36.26;100992.25;5066108;28;20583;-69
2022/11/09 03:12:28;;;;;;;24.37;13.30;;;;;;;41.91;36.15;100987.53;5094248;28;20219;-69
2022/11/09 03:15:03;;;;;;;16.97;9.10;;;;;;;41.63;36.46;100979.81;5094394;28;20463;-69
2022/11/09 03:17:31;;;;;;;21.03;9.43;;;;;;;41.61;36.47;100979.34;5110882;28;20167;-69
2022/11/09 03:19:57;;;;;;;23.37;9.83;;;;;;;41.61;36.39;100974.69;5094042;28;20413;-69
2022/11/09 03:22:23;;;;;;;25.67;10.50;;;;;;;41.69;36.39;100980.44;5093511;28;20483;-69
2022/11/09 03:24:49;;;;;;;23.53;11.23;;;;;;;41.53;36.58;100974.75;5093008;28;20203;-69
2022/11/09 03:27:15;;;;;;;17.03;9.23;;;;;;;41.85;35.95;100989.63;5094522;28;20429;-69
2022/11/09 03:29:41;;;;;;;23.40;9.23;;;;;;;41.52;36.50;100992.22;5093745;28;20447;-71
2022/11/09 03:32:07;;;;;;;14.80;9.50;;;;;;;41.41;36.47;100991.00;5093772;28;20421;-71
2022/11/09 03:34:33;;;;;;;21.97;10.73;;;;;;;41.41;36.97;100994.50;5094397;28;20413;-71
2022/11/09 03:36:59;;;;;;;17.80;9.23;;;;;;;41.32;36.75;100989.13;5095237;28;20397;-71
2022/11/09 03:39:25;;;;;;;24.23;10.93;;;;;;;41.47;36.04;100987.75;5093681;28;20974;-69
2022/11/09 03:41:50;;;;;;;13.97;8.40;;;;;;;41.45;36.19;100991.94;5093546;28;20175;-70
2022/11/09 03:44:16;;;;;;;21.93;10.07;;;;;;;41.40;36.01;100992.13;5093690;28;20270;-69
2022/11/09 03:46:42;;;;;;;15.70;8.47;;;;;;;41.52;35.65;100995.75;5093465;28;20198;-69
2022/11/09 03:49:08;;;;;;;21.43;11.37;;;;;;;41.64;35.50;100995.03;5095008;28;20186;-69
2022/11/09 03:51:34;;;;;;;16.23;8.40;;;;;;;42.02;35.20;100999.63;5094968;28;20787;-69
2022/11/09 03:54:00;;;;;;;16.20;9.90;;;;;;;41.86;35.28;101000.19;5093384;28;20171;-69
2022/11/09 03:56:26;;;;;;;17.20;8.97;;;;;;;41.67;35.45;100997.09;5093445;28;20218;-69
2022/11/09 03:58:52;;;;;;;24.30;10.17;;;;;;;41.92;35.31;101000.00;5093280;28;20175;-69
2022/11/09 04:01:17;;;;;;;21.83;9.97;;;;;;;42.02;35.45;101007.81;5094742;28;20159;-69
2022/11/09 04:03:43;;;;;;;22.30;12.00;;;;;;;42.26;35.48;101007.19;5094542;28;20211;-69
2022/11/09 04:06:09;;;;;;;16.40;9.80;;;;;;;42.02;34.76;101007.81;5094783;28;20400;-69
2022/11/09 04:08:35;;;;;;;30.40;10.93;;;;;;;42.04;35.20;101008.25;5092915;28;20181;-69
2022/11/09 04:11:01;;;;;;;20.30;9.63;;;;;;;41.90;35.08;101002.28;5092845;28;20290;-69
2022/11/09 04:13:27;;;;;;;22.03;9.90;;;;;;;42.01;35.22;101014.41;5092779;28;20552;-69
2022/11/09 04:15:53;;;;;;;18.37;8.90;;;;;;;41.95;34.69;101011.06;5094539;28;20155;-69
2022/11/09 04:18:19;;;;;;;16.63;10.93;;;;;;;42.30;34.41;101017.09;5092686;28;20417;-69
2022/11/09 04:20:44;;;;;;;22.53;9.53;;;;;;;42.34;33.77;101015.28;5092760;28;20271;-69
2022/11/09 04:23:13;;;;;;;18.67;9.13;;;;;;;42.22;34.41;101012.50;5092592;28;20227;-69
2022/11/09 04:25:40;;;;;;;15.83;9.83;;;;;;;42.13;34.29;101017.19;5092461;28;20931;-68
2022/11/09 04:28:10;;;;;;;48.00;11.27;;;;;;;41.70;35.32;101020.97;5094448;28;20488;-69
2022/11/09 04:30:36;;;;;;;15.27;8.30;;;;;;;41.99;34.65;101024.81;5092398;28;20508;-71
2022/11/09 04:33:03;;;;;;;18.13;10.80;;;;;;;42.13;34.56;101023.44;5094125;28;20421;-71
2022/11/09 04:35:31;;;;;;;16.07;9.53;;;;;;;42.18;34.37;101021.69;5092481;28;20411;-71
2022/11/09 04:37:59;;;;;;;17.53;9.37;;;;;;;42.19;34.52;101023.28;5092394;28;20810;-69
2022/11/09 04:40:27;;;;;;;35.57;11.10;;;;;;;42.11;34.60;101028.44;5094107;28;20397;-69
2022/11/09 04:42:53;;;;;;;36.53;12.67;;;;;;;42.30;34.49;101025.28;5092314;28;20479;-70
2022/11/09 04:45:20;;;;;;;25.47;10.80;;;;;;;42.30;34.61;101024.47;5092219;28;20425;-69
2022/11/09 04:47:47;;;;;;;12.07;8.50;;;;;;;42.23;34.66;101029.63;5092299;28;20408;-69
2022/11/09 04:50:13;;;;;;;19.53;9.93;;;;;;;42.37;34.54;101036.44;5092189;28;20415;-69
2022/11/09 04:52:39;;;;;;;13.73;8.27;;;;;;;42.28;34.73;101038.41;5092796;28;20504;-69
2022/11/09 04:55:06;;;;;;;16.93;8.03;;;;;;;42.28;34.60;101046.59;5092190;28;20408;-69
2022/11/09 04:57:32;;;;;;;20.53;11.80;;;;;;;42.24;34.61;101059.31;5092059;28;20401;-69
2022/11/09 04:59:58;;;;;;;22.60;12.27;;;;;;;42.47;34.51;101061.69;5092335;28;20425;-69
2022/11/09 05:02:24;;;;;;;19.27;8.97;;;;;;;42.31;34.62;101048.69;5091941;28;20633;-69
2022/11/09 05:04:49;;;;;;;16.77;10.33;;;;;;;42.57;33.90;101058.56;5091965;28;20472;-69
2022/11/09 05:07:15;;;;;;;17.30;9.20;;;;;;;42.08;34.85;101066.44;5091942;28;20178;-69
2022/11/09 05:09:41;;;;;;;16.43;10.30;;;;;;;42.36;34.42;101064.84;5103708;28;20186;-70
2022/11/09 05:12:07;;;;;;;12.97;9.23;;;;;;;42.19;35.03;101075.88;5112711;28;20194;-70
2022/11/09 05:14:33;;;;;;;14.80;8.73;;;;;;;42.24;34.52;101075.66;5094053;28;20165;-70
2022/11/09 05:16:59;;;;;;;19.20;8.80;;;;;;;41.92;35.11;101077.09;5071286;28;20437;-70
2022/11/09 05:19:25;;;;;;;17.13;8.67;;;;;;;42.29;34.83;101089.09;5071554;28;20175;-70
2022/11/09 05:21:51;;;;;;;20.10;12.07;;;;;;;41.97;35.28;101092.47;5072441;28;20247;-70
2022/11/09 05:24:16;;;;;;;20.30;12.37;;;;;;;42.35;34.64;101098.66;5074793;28;20217;-70
2022/11/09 05:26:42;;;;;;;22.63;15.30;;;;;;;42.29;34.77;101105.44;5075012;28;20428;-69
2022/11/09 05:29:10;;;;;;;25.17;14.53;;;;;;;42.34;35.02;101099.81;5074585;28;20202;-71
2022/11/09 05:31:37;;;;;;;28.23;20.90;;;;;;;42.08;35.46;101102.66;5074739;28;20175;-70
2022/11/09 05:34:05;;;;;;;23.87;18.10;;;;;;;42.09;35.41;101103.47;5074555;28;20927;-70
2022/11/09 05:36:32;;;;;;;34.03;19.03;;;;;;;41.78;36.21;101112.75;5091444;28;20852;-72
2022/11/09 05:38:59;;;;;;;29.17;18.00;;;;;;;41.77;35.75;101116.63;5074699;28;20409;-70
2022/11/09 05:41:25;;;;;;;26.33;16.73;;;;;;;41.87;35.75;101110.00;5092976;28;20433;-70
2022/11/09 05:43:52;;;;;;;25.60;18.00;;;;;;;41.35;36.13;101104.72;5074627;28;20456;-70
2022/11/09 05:46:18;;;;;;;45.43;30.93;;;;;;;40.93;37.13;101112.59;5073912;28;20476;-70
2022/11/09 05:48:45;;;;;;;53.37;27.10;;;;;;;40.99;36.92;101119.47;5074642;28;20795;-70
2022/11/09 05:51:13;;;;;;;35.27;17.67;;;;;;;41.36;36.94;101111.75;5074391;28;20452;-69
2022/11/09 05:53:39;;;;;;;35.43;21.07;;;;;;;41.21;36.82;101118.50;5074546;28;20440;-72
2022/11/09 05:56:08;;;;;;;27.87;18.17;;;;;;;41.39;36.48;101122.00;5074538;28;20473;-71
2022/11/09 05:58:37;;;;;;;30.60;20.70;;;;;;;41.32;36.53;101122.50;5074486;28;20923;-71
2022/11/09 06:01:09;;;;;;;34.77;20.33;;;;;;;41.39;36.71;101121.22;5092963;28;20412;-72
2022/11/09 06:03:36;;;;;;;26.17;20.33;;;;;;;41.62;36.29;101125.31;5074224;28;20489;-71
2022/11/09 06:06:06;;;;;;;31.97;19.80;;;;;;;41.39;36.73;101129.38;5074217;28;21003;-71
2022/11/09 06:08:32;;;;;;;36.37;19.40;;;;;;;41.25;36.33;101135.78;5091287;28;20397;-72
2022/11/09 06:11:00;;;;;;;31.63;20.57;;;;;;;41.30;36.47;101142.97;5091535;28;20432;-72
2022/11/09 06:13:27;;;;;;;33.00;23.40;;;;;;;41.39;36.55;101127.44;5074179;28;20932;-71
2022/11/09 06:15:55;;;;;;;36.23;21.90;;;;;;;41.59;36.26;101132.19;5093795;28;20432;-70
2022/11/09 06:18:23;;;;;;;26.93;17.07;;;;;;;41.12;36.74;101136.72;5069653;28;21020;-69
2022/11/09 06:20:53;;;;;;;37.87;23.77;;;;;;;41.02;37.59;101135.16;5060155;28;20420;-69
2022/11/09 06:23:24;;;;;;;29.47;20.67;;;;;;;41.52;36.52;101142.00;5068289;28;20485;-70
2022/11/09 06:25:58;;;;;;;37.00;20.93;;;;;;;41.34;36.66;101142.03;5082588;28;20416;-71
2022/11/09 06:28:25;;;;;;;29.47;20.83;;;;;;;41.03;36.92;101152.28;5080956;28;20830;-70
2022/11/09 06:30:51;;;;;;;34.33;21.83;;;;;;;41.06;37.17;101152.44;5081795;28;20930;-72
2022/11/09 06:33:17;;;;;;;33.83;22.27;;;;;;;40.88;37.72;101160.88;5071979;28;20845;-72
2022/11/09 06:35:43;;;;;;;40.33;21.60;;;;;;;41.10;37.21;101174.38;5072261;28;20413;-71
2022/11/09 06:38:12;;;;;;;44.00;21.67;;;;;;;41.48;36.67;101174.50;5078735;28;20585;-71
2022/11/09 06:40:38;;;;;;;27.70;20.97;;;;;;;41.72;36.17;101170.44;5081776;28;20220;-71
2022/11/09 06:43:05;;;;;;;43.60;23.70;;;;;;;41.40;36.37;101172.59;5084465;28;20451;-70
2022/11/09 06:45:31;;;;;;;38.27;26.17;;;;;;;41.96;35.49;101157.06;5087756;28;20454;-70
2022/11/09 06:47:59;;;;;;;37.37;21.23;;;;;;;41.83;35.63;101179.91;5071451;28;20409;-70
2022/11/09 06:50:28;;;;;;;31.30;21.63;;;;;;;41.90;35.77;101179.38;5066354;28;20452;-69
2022/11/09 06:53:04;;;;;;;28.57;20.07;;;;;;;41.86;36.09;101185.47;5082262;28;20413;-70
2022/11/09 06:55:31;;;;;;;27.27;19.83;;;;;;;41.66;35.94;101186.16;5090137;28;20408;-69
2022/11/09 06:57:57;;;;;;;39.87;21.27;;;;;;;41.27;36.80;101192.63;5080316;28;20435;-73
2022/11/09 07:00:25;;;;;;;31.00;20.07;;;;;;;40.92;37.34;101192.63;5078073;28;20417;-70
2022/11/09 07:02:51;;;;;;;40.00;21.20;;;;;;;41.08;36.87;101195.66;5081002;28;20402;-70
2022/11/09 07:05:18;;;;;;;23.97;19.60;;;;;;;41.62;36.56;101207.00;5088570;28;20437;-72
2022/11/09 07:07:44;;;;;;;25.50;19.40;;;;;;;41.17;37.29;101201.91;5089060;28;20511;-70
2022/11/09 07:10:10;;;;;;;58.27;34.73;;;;;;;41.26;36.67;101196.47;5089624;28;20528;-72
2022/11/09 07:12:36;;;;;;;43.13;26.40;;;;;;;41.91;35.73;101208.22;5088618;28;20455;-70
2022/11/09 07:15:03;;;;;;;35.90;29.07;;;;;;;41.88;35.96;101198.00;5099762;28;20406;-73
2022/11/09 07:17:31;;;;;;;53.03;34.40;;;;;;;41.92;35.69;101196.19;5085333;28;20481;-68
2022/11/09 07:19:57;;;;;;;45.43;32.23;;;;;;;42.13;35.56;101216.16;5063904;28;20412;-69
2022/11/09 07:22:22;;;;;;;46.27;30.43;;;;;;;42.04;35.44;101215.38;5093911;28;20818;-69
2022/11/09 07:24:48;;;;;;;37.60;28.70;;;;;;;42.22;35.71;101219.66;5094428;28;20225;-69
2022/11/09 07:27:15;;;;;;;46.60;34.80;;;;;;;42.08;35.58;101230.78;5077036;28;20432;-68
2022/11/09 07:29:41;;;;;;;45.47;27.40;;;;;;;41.84;35.78;101225.88;5093951;28;20285;-70
2022/11/09 07:32:06;;;;;;;40.63;25.17;;;;;;;41.63;36.33;101218.72;5093751;28;20982;-71
2022/11/09 07:34:32;;;;;;;34.37;21.63;;;;;;;41.78;35.91;101227.19;5093818;28;20198;-73
2022/11/09 07:36:58;;;;;;;39.07;27.50;;;;;;;41.92;36.01;101228.91;5076826;28;20656;-71
2022/11/09 07:39:24;;;;;;;33.30;25.60;;;;;;;42.35;35.38;101239.66;5093751;28;20277;-72
2022/11/09 07:41:50;;;;;;;44.43;27.67;;;;;;;42.39;35.14;101238.69;5093511;28;20457;-71
2022/11/09 07:44:19;;;;;;;43.17;27.33;;;;;;;42.46;34.86;101240.09;5093655;28;20738;-71
2022/11/09 07:46:48;;;;;;;42.03;22.57;;;;;;;42.12;35.44;101250.00;5093553;28;20175;-71
2022/11/09 07:49:16;;;;;;;37.87;21.87;;;;;;;42.22;35.46;101244.22;5093328;28;20413;-71
2022/11/09 07:51:42;;;;;;;35.17;23.07;;;;;;;42.22;35.37;101248.88;5095252;28;20397;-72
2022/11/09 07:54:09;;;;;;;38.17;22.37;;;;;;;42.20;35.37;101260.09;5093396;28;20420;-73
2022/11/09 07:56:35;;;;;;;33.10;23.07;;;;;;;42.58;34.95;101264.75;5092326;28;20413;-69
2022/11/09 07:59:02;;;;;;;46.43;27.40;;;;;;;42.61;34.63;101264.13;5077891;28;20464;-78
2022/11/09 08:01:28;;;;;;;43.40;24.27;;;;;;;42.46;34.72;101259.19;5088594;28;20428;-73
2022/11/09 08:03:54;;;;;;;36.57;22.17;;;;;;;42.27;35.34;101267.78;5088082;28;20892;-73
2022/11/09 08:06:23;;;;;;;31.63;23.83;;;;;;;42.11;35.46;101272.91;5082128;28;20419;-73
2022/11/09 08:08:49;;;;;;;41.77;22.53;;;;;;;42.03;35.55;101273.75;5077029;28;20410;-73
2022/11/09 08:11:15;;;;;;;36.03;21.00;;;;;;;42.19;35.37;101268.63;5071182;28;20449;-74
2022/11/09 08:13:41;;;;;;;29.87;20.67;;;;;;;42.48;35.23;101271.38;5070955;28;20848;-73
2022/11/09 08:16:07;;;;;;;27.90;22.20;;;;;;;42.22;34.86;101271.47;5075276;28;20459;-74
2022/11/09 08:18:33;;;;;;;31.17;21.30;;;;;;;42.93;33.79;101257.97;5092818;28;20419;-74
2022/11/09 08:21:03;;;;;;;33.80;19.47;;;;;;;43.00;33.88;101262.94;5092814;28;20410;-73
2022/11/09 08:23:30;;;;;;;34.40;21.20;;;;;;;42.83;34.18;101271.19;5075753;28;20473;-73
2022/11/09 08:25:56;;;;;;;30.60;21.10;;;;;;;42.92;33.86;101261.84;5091807;28;20417;-73
2022/11/09 08:28:22;;;;;;;34.97;23.33;;;;;;;43.04;33.93;101269.31;5090068;28;20508;-72
2022/11/09 08:30:59;;;;;;;35.20;21.43;;;;;;;43.05;33.37;101270.13;5094350;28;20663;-74
2022/11/09 08:33:27;;;;;;;34.07;19.27;;;;;;;43.21;33.31;101271.09;5094257;28;20395;-73
2022/11/09 08:35:53;;;;;;;26.20;16.73;;;;;;;43.37;32.95;101279.50;5092473;28;20856;-74
2022/11/09 08:38:19;;;;;;;26.60;15.97;;;;;;;43.40;32.01;101278.84;5092375;28;20415;-73
2022/11/09 08:40:46;;;;;;;19.23;13.60;;;;;;;43.58;31.53;101279.47;5092535;28;20413;-73
2022/11/09 08:43:12;;;;;;;20.77;13.33;;;;;;;43.56;31.37;101276.31;5092146;28;20577;-73
2022/11/09 08:45:40;;;;;;;18.37;11.77;;;;;;;43.66;30.73;101276.69;5094240;28;20406;-72
2022/11/09 08:48:07;;;;;;;29.77;12.93;;;;;;;43.68;30.17;101273.59;5094046;28;20396;-72
2022/11/09 08:50:35;;;;;;;15.87;12.00;;;;;;;43.70;29.84;101276.78;5073619;28;20423;-71
2022/11/09 08:53:02;;;;;;;28.10;14.50;;;;;;;43.73;30.64;101289.78;5088755;28;20492;-70
2022/11/09 08:55:28;;;;;;;26.87;16.00;;;;;;;43.79;31.23;101285.75;5076989;28;20410;-72
2022/11/09 08:57:57;;;;;;;29.03;19.43;;;;;;;43.86;31.49;101286.00;5073010;28;20413;-71
2022/11/09 09:00:23;;;;;;;24.13;13.80;;;;;;;43.89;30.98;101282.59;5078280;28;20433;-73
2022/11/09 09:02:49;;;;;;;21.90;13.70;;;;;;;43.95;30.90;101291.34;5079511;28;21037;-73
2022/11/09 09:05:16;;;;;;;29.07;14.73;;;;;;;43.81;30.84;101291.66;5081457;28;20493;-74
2022/11/09 09:07:41;;;;;;;20.37;15.40;;;;;;;43.81;31.06;101294.41;5078597;28;20170;-75
2022/11/09 09:10:08;;;;;;;23.33;15.87;;;;;;;43.91;31.08;101295.91;5080452;28;20921;-74
2022/11/09 09:12:34;;;;;;;23.30;13.97;;;;;;;44.02;30.77;101304.50;5073899;28;20637;-73
2022/11/09 09:15:00;;;;;;;25.00;17.63;;;;;;;44.07;31.73;101293.31;5078803;28;21030;-73
2022/11/09 09:17:26;;;;;;;31.67;19.67;;;;;;;43.97;32.81;101298.09;5076307;28;20500;-74
2022/11/09 09:19:52;;;;;;;24.83;16.00;;;;;;;43.83;32.73;101294.06;5081910;28;20773;-72
2022/11/09 09:22:19;;;;;;;30.57;18.17;;;;;;;43.85;32.85;101289.06;5081077;28;20465;-70
2022/11/09 09:24:45;;;;;;;25.33;18.83;;;;;;;43.68;33.13;101292.72;5101593;28;20444;-72
2022/11/09 09:27:11;;;;;;;26.20;17.23;;;;;;;43.34;32.96;101291.91;5085300;28;20409;-71
2022/11/09 09:29:37;;;;;;;28.43;14.43;;;;;;;43.12;33.03;101282.09;5070367;28;20413;-71
2022/11/09 09:32:04;;;;;;;34.47;12.90;;;;;;;43.38;32.25;101281.91;5074410;28;20784;-71
2022/11/09 09:34:29;;;;;;;18.47;10.87;;;;;;;43.47;31.12;101278.31;5093405;28;20185;-71
2022/11/09 09:36:55;;;;;;;18.27;11.03;;;;;;;43.65;30.50;101279.75;5058052;28;20923;-71
2022/11/09 09:39:21;;;;;;;13.27;9.80;;;;;;;43.18;30.27;101291.69;5075059;28;21021;-71
2022/11/09 09:41:56;;;;;;;15.63;8.60;;;;;;;43.02;30.09;101287.16;5074697;28;20413;-72
2022/11/09 09:44:33;;;;;;;14.53;8.87;;;;;;;43.15;29.63;101283.34;5074487;28;20699;-71
2022/11/09 09:47:22;;;;;;;18.20;9.90;;;;;;;42.90;30.69;101280.44;5075698;28;20413;-71
2022/11/09 09:50:01;;;;;;;29.93;9.27;;;;;;;43.02;30.60;101278.97;5094762;28;20937;-71
2022/11/09 09:52:50;;;;;;;19.60;9.50;;;;;;;43.27;30.38;101286.16;5078367;28;20447;-71
2022/11/09 09:55:33;;;;;;;13.93;7.60;;;;;;;43.19;29.96;101282.38;5112467;28;20479;-72
2022/11/09 09:58:22;;;;;;;18.60;8.90;;;;;;;43.06;30.04;101269.78;5094710;28;20473;-71
2022/11/09 10:00:52;;;;;;;13.10;7.50;;;;;;;43.41;28.73;101272.28;5078480;28;20513;-71
2022/11/09 10:03:19;;;;;;;14.07;8.27;;;;;;;43.44;27.25;101277.84;5074395;28;20543;-68
2022/11/09 10:05:49;;;;;;;12.90;6.20;;;;;;;43.27;26.97;101275.22;5074536;28;20448;-69
2022/11/09 10:08:29;;;;;;;12.90;6.10;;;;;;;43.21;27.18;101282.03;5074319;28;20425;-69
2022/11/09 10:11:14;;;;;;;11.20;6.63;;;;;;;43.27;27.20;101288.88;5079382;28;20433;-72
2022/11/09 10:13:57;;;;;;;12.80;6.67;;;;;;;43.43;27.09;101292.63;5074326;28;20475;-74
2022/11/09 10:16:58;;;;;;;12.20;6.17;;;;;;;43.43;27.09;101291.84;5076733;28;20424;-73
2022/11/09 10:19:40;;;;;;;11.47;6.47;;;;;;;43.22;27.58;101285.56;5081450;28;20417;-72
2022/11/09 10:22:11;;;;;;;14.37;6.53;;;;;;;43.20;27.16;101277.69;5085181;28;20772;-78
2022/11/09 10:25:00;;;;;;;19.00;8.10;;;;;;;43.10;27.73;101280.84;5081970;28;20510;-77
2022/11/09 10:27:35;;;;;;;12.60;6.43;;;;;;;43.10;28.35;101265.28;5084879;28;20536;-71
2022/11/09 10:30:06;;;;;;;16.70;5.20;;;;;;;43.09;28.48;101262.84;5079426;28;20408;-73
2022/11/09 10:32:32;;;;;;;22.10;8.80;;;;;;;43.06;28.46;101263.53;5081043;28;20427;-72
2022/11/09 10:35:04;;;;;;;12.20;5.63;;;;;;;43.26;28.89;101262.72;5094816;28;20428;-72
2022/11/09 10:37:47;;;;;;;11.40;6.40;;;;;;;43.32;28.55;101264.09;5077947;28;20190;-72
2022/11/09 10:40:36;;;;;;;10.27;5.43;;;;;;;43.22;28.81;101252.78;5077815;28;20799;-72
2022/11/09 10:43:08;;;;;;;20.23;6.27;;;;;;;43.51;28.74;101244.53;5083180;28;20508;-69
2022/11/09 10:45:36;;;;;;;12.10;5.80;;;;;;;43.49;29.07;101240.53;5080321;28;20432;-69
2022/11/09 10:48:04;;;;;;;9.70;7.03;;;;;;;43.58;28.49;101239.31;5062309;28;20428;-68
2022/11/09 10:50:32;;;;;;;11.90;5.53;;;;;;;43.78;28.58;101231.41;5097930;28;20435;-68
2022/11/09 10:53:22;;;;;;;14.23;9.50;;;;;;;43.87;28.38;101223.91;5096038;28;20440;-69
2022/11/09 10:56:13;;;;;;;13.97;6.60;;;;;;;43.82;28.82;101218.66;5077969;27;20981;-71
2022/11/09 10:58:48;;;;;;;12.00;6.07;;;;;;;43.92;28.41;101212.78;5135976;27;20889;-70
2022/11/09 11:01:24;;;;;;;9.03;6.70;;;;;;;43.73;28.85;101216.03;5118203;27;20418;-70
2022/11/09 11:03:54;;;;;;;19.10;6.60;;;;;;;43.41;29.14;101212.19;5117875;27;20473;-70
2022/11/09 11:06:20;;;;;;;15.03;6.93;;;;;;;43.46;29.60;101203.75;5136887;27;20890;-70
2022/11/09 11:08:59;;;;;;;10.47;6.30;;;;;;;43.45;28.96;101208.41;5117959;27;20472;-71
2022/11/09 11:11:31;;;;;;;12.30;6.27;;;;;;;43.61;29.01;101199.59;5117911;27;20205;-72
2022/11/09 11:14:30;;;;;;;9.00;4.93;;;;;;;43.43;28.92;101188.84;5136653;27;20395;-70
2022/11/09 11:16:56;;;;;;;10.57;6.10;;;;;;;43.47;29.14;101189.00;5097450;28;20431;-74
2022/11/09 11:19:33;;;;;;;11.53;7.40;;;;;;;43.55;29.11;101181.81;5097296;28;21014;-69